createdAt,value
2018-10-16T00:02:01.205Z,6.93
2018-10-16T00:04:28.941Z,6.95
2018-10-16T00:06:56.749Z,6.94
2018-10-16T00:09:24.480Z,6.90
2018-10-16T00:12:08.481Z,6.91
2018-10-16T00:14:36.205Z,6.93
2018-10-16T00:17:04.497Z,6.91
2018-10-16T00:19:32.902Z,6.90
2018-10-16T00:22:00.985Z,6.90
2018-10-16T00:24:28.709Z,6.90
2018-10-16T00:26:56.448Z,6.89
2018-10-16T00:29:24.252Z,6.87
2018-10-16T00:31:51.972Z,6.86
2018-10-16T00:34:19.748Z,6.85
2018-10-16T00:36:47.535Z,6.85
2018-10-16T00:39:16.399Z,6.86
2018-10-16T00:41:48.686Z,6.85
2018-10-16T00:44:16.443Z,6.82
2018-10-16T00:46:44.267Z,6.80
2018-10-16T00:49:12.033Z,6.79
2018-10-16T00:51:40.340Z,6.78
2018-10-16T00:54:08.686Z,6.79
2018-10-16T00:56:36.815Z,6.77
2018-10-16T00:59:04.652Z,6.76
2018-10-16T01:01:33.394Z,6.75
2018-10-16T01:04:02.884Z,6.76
2018-10-16T01:06:31.395Z,6.75
2018-10-16T01:08:59.132Z,6.73
2018-10-16T01:11:26.948Z,6.71
2018-10-16T01:13:56.094Z,6.70
2018-10-16T01:16:23.862Z,6.72
2018-10-16T01:18:51.817Z,6.70
2018-10-16T01:21:19.931Z,6.67
2018-10-16T01:23:47.702Z,6.66
2018-10-16T01:26:15.447Z,6.65
2018-10-16T01:28:43.252Z,6.64
2018-10-16T01:31:10.991Z,6.62
2018-10-16T01:33:39.529Z,6.61
2018-10-16T01:36:08.157Z,6.60
2018-10-16T01:38:35.985Z,6.58
2018-10-16T01:41:03.791Z,6.55
2018-10-16T01:43:31.538Z,6.52
2018-10-16T01:45:59.287Z,6.51
2018-10-16T01:48:27.004Z,6.50
2018-10-16T01:50:54.763Z,6.49
2018-10-16T01:53:22.596Z,6.45
2018-10-16T01:55:50.404Z,6.43
2018-10-16T01:58:18.176Z,6.43
2018-10-16T02:00:45.996Z,6.41
2018-10-16T02:03:13.738Z,6.40
2018-10-16T02:05:41.477Z,6.39
2018-10-16T02:08:09.326Z,6.35
2018-10-16T02:10:37.385Z,6.33
2018-10-16T02:13:05.428Z,6.32
2018-10-16T02:15:33.235Z,6.30
2018-10-16T02:18:01.004Z,6.31
2018-10-16T02:20:28.741Z,6.31
2018-10-16T02:22:56.498Z,6.32
2018-10-16T02:25:24.258Z,6.31
2018-10-16T02:27:52.007Z,6.29
2018-10-16T02:30:19.783Z,6.28
2018-10-16T02:32:47.541Z,6.26
2018-10-16T02:35:15.336Z,6.26
2018-10-16T02:37:43.491Z,6.25
2018-10-16T02:40:11.237Z,6.25
2018-10-16T02:42:39.761Z,6.25
2018-10-16T02:45:09.016Z,6.23
2018-10-16T02:47:36.753Z,6.11
2018-10-16T02:50:05.017Z,6.20
2018-10-16T02:52:32.811Z,6.17
2018-10-16T02:55:00.560Z,6.15
2018-10-16T02:57:28.339Z,6.13
2018-10-16T02:59:56.142Z,6.07
2018-10-16T03:02:24.034Z,6.06
2018-10-16T03:04:51.851Z,6.01
2018-10-16T03:07:19.631Z,5.89
2018-10-16T03:09:47.511Z,5.96
2018-10-16T03:12:15.270Z,5.93
2018-10-16T03:14:43.182Z,5.88
2018-10-16T03:17:10.921Z,5.87
2018-10-16T03:19:38.759Z,5.81
2018-10-16T03:22:06.836Z,5.75
2018-10-16T03:24:34.604Z,5.70
2018-10-16T03:27:02.405Z,5.66
2018-10-16T03:29:30.167Z,5.62
2018-10-16T03:31:57.911Z,5.59
2018-10-16T03:34:25.703Z,5.57
2018-10-16T03:36:53.502Z,5.56
2018-10-16T03:39:21.246Z,5.53
2018-10-16T03:41:48.977Z,5.49
2018-10-16T03:44:16.739Z,5.45
2018-10-16T03:46:44.460Z,5.41
2018-10-16T03:49:12.216Z,5.36
2018-10-16T03:51:40.679Z,5.32
2018-10-16T03:54:09.023Z,5.26
2018-10-16T03:56:36.779Z,5.20
2018-10-16T03:59:04.796Z,5.15
2018-10-16T04:01:32.568Z,5.07
2018-10-16T04:04:00.355Z,5.02
2018-10-16T04:06:28.141Z,4.94
2018-10-16T04:08:55.925Z,4.85
2018-10-16T04:11:23.631Z,4.75
2018-10-16T04:13:51.397Z,4.66
2018-10-16T04:16:19.412Z,4.59
2018-10-16T04:18:47.341Z,4.50
2018-10-16T04:21:15.164Z,4.40
2018-10-16T04:23:43.395Z,4.29
2018-10-16T04:26:11.800Z,4.21
2018-10-16T04:28:39.629Z,4.10
2018-10-16T04:31:08.352Z,4.03
2018-10-16T04:33:36.195Z,3.95
2018-10-16T04:36:03.982Z,3.87
2018-10-16T04:38:31.776Z,3.77
2018-10-16T04:40:59.680Z,3.72
2018-10-16T04:43:27.418Z,3.65
2018-10-16T04:45:55.212Z,3.57
2018-10-16T04:48:23.349Z,3.51
2018-10-16T04:50:51.055Z,3.43
2018-10-16T04:53:18.825Z,3.35
2018-10-16T04:55:46.584Z,3.28
2018-10-16T04:58:14.365Z,3.21
2018-10-16T05:00:42.207Z,3.13
2018-10-16T05:03:09.947Z,3.05
2018-10-16T05:05:37.776Z,3.00
2018-10-16T05:08:05.997Z,2.93
2018-10-16T05:10:33.731Z,2.87
2018-10-16T05:13:01.620Z,2.79
2018-10-16T05:15:32.572Z,2.69
2018-10-16T05:18:00.842Z,2.60
2018-10-16T05:20:28.704Z,2.52
2018-10-16T05:22:57.423Z,2.46
2018-10-16T05:25:26.370Z,2.42
2018-10-16T05:27:54.410Z,2.36
2018-10-16T05:30:22.129Z,2.16
2018-10-16T05:32:49.910Z,2.17
2018-10-16T05:35:17.648Z,2.11
2018-10-16T05:37:45.399Z,2.05
2018-10-16T05:40:13.194Z,1.98
2018-10-16T05:42:40.987Z,1.90
2018-10-16T05:45:10.603Z,1.84
2018-10-16T05:47:39.084Z,1.79
2018-10-16T05:50:07.514Z,1.72
2018-10-16T05:52:35.361Z,1.65
2018-10-16T05:55:03.452Z,1.59
2018-10-16T05:57:31.197Z,1.50
2018-10-16T06:00:37.159Z,1.48
2018-10-16T06:03:05.415Z,1.46
2018-10-16T06:05:33.275Z,1.45
2018-10-16T06:08:01.084Z,1.45
2018-10-16T06:10:28.840Z,1.41
2018-10-16T06:12:56.640Z,1.39
2018-10-16T06:15:24.384Z,1.38
2018-10-16T06:17:52.127Z,1.40
2018-10-16T06:20:19.922Z,1.40
2018-10-16T06:22:47.744Z,1.38
2018-10-16T06:25:15.540Z,1.37
2018-10-16T06:27:43.651Z,1.38
2018-10-16T06:30:11.991Z,1.41
2018-10-16T06:32:40.072Z,1.41
2018-10-16T06:35:08.612Z,1.43
2018-10-16T06:37:36.357Z,1.46
2018-10-16T06:40:04.292Z,1.49
2018-10-16T06:42:32.056Z,1.53
2018-10-16T06:44:59.836Z,1.56
2018-10-16T06:47:27.618Z,1.61
2018-10-16T06:49:55.360Z,1.66
2018-10-16T06:52:23.102Z,1.73
2018-10-16T06:54:50.941Z,1.84
2018-10-16T06:57:18.669Z,1.90
2018-10-16T06:59:46.403Z,1.95
2018-10-16T07:02:14.145Z,2.00
2018-10-16T07:04:42.087Z,2.06
2018-10-16T07:07:10.699Z,2.17
2018-10-16T07:09:38.406Z,2.26
2018-10-16T07:12:06.841Z,2.35
2018-10-16T07:14:34.551Z,2.45
2018-10-16T07:17:02.340Z,2.53
2018-10-16T07:19:30.093Z,2.62
2018-10-16T07:21:58.322Z,2.73
2018-10-16T07:24:26.048Z,2.85
2018-10-16T07:26:53.831Z,2.98
2018-10-16T07:29:21.578Z,3.17
2018-10-16T07:31:49.326Z,3.28
2018-10-16T07:34:17.123Z,3.40
2018-10-16T07:36:44.885Z,3.52
2018-10-16T07:39:13.190Z,3.65
2018-10-16T07:41:41.380Z,3.77
2018-10-16T07:44:09.647Z,3.86
2018-10-16T07:46:37.389Z,3.94
2018-10-16T07:49:05.828Z,4.01
2018-10-16T07:51:33.621Z,4.13
2018-10-16T07:54:01.364Z,4.27
2018-10-16T07:56:29.109Z,4.41
2018-10-16T07:58:56.854Z,4.55
2018-10-16T08:01:24.624Z,4.71
2018-10-16T08:03:52.346Z,4.87
2018-10-16T08:06:20.109Z,5.01
2018-10-16T08:08:47.860Z,5.22
2018-10-16T08:11:15.659Z,5.41
2018-10-16T08:13:43.424Z,5.54
2018-10-16T08:16:11.145Z,5.74
2018-10-16T08:18:39.176Z,5.98
2018-10-16T08:21:07.001Z,6.18
2018-10-16T08:23:34.797Z,6.37
2018-10-16T08:26:02.962Z,6.51
2018-10-16T08:28:30.857Z,6.62
2018-10-16T08:30:58.651Z,6.81
2018-10-16T08:33:26.383Z,6.96
2018-10-16T08:35:54.148Z,7.14
2018-10-16T08:38:35.926Z,7.34
2018-10-16T08:41:05.505Z,7.52
2018-10-16T08:43:46.252Z,7.45
2018-10-16T08:46:25.493Z,7.63
2018-10-16T08:50:06.040Z,7.79
2018-10-16T08:52:33.749Z,8.06
2018-10-16T08:55:01.616Z,8.32
2018-10-16T08:57:29.320Z,8.42
2018-10-16T08:59:57.072Z,8.55
2018-10-16T09:02:24.862Z,8.69
2018-10-16T09:04:52.618Z,8.93
2018-10-16T09:07:20.370Z,9.13
2018-10-16T09:09:48.154Z,9.24
2018-10-16T09:12:15.878Z,9.22
2018-10-16T09:14:43.605Z,9.32
2018-10-16T09:17:11.360Z,9.48
2018-10-16T09:19:39.080Z,9.53
2018-10-16T09:22:06.882Z,9.51
2018-10-16T09:24:34.723Z,9.66
2018-10-16T09:27:02.484Z,9.71
2018-10-16T09:29:30.228Z,9.87
2018-10-16T09:31:58.056Z,9.98
2018-10-16T09:34:25.862Z,10.08
2018-10-16T09:36:53.608Z,10.17
2018-10-16T09:39:21.346Z,10.24
2018-10-16T09:41:49.151Z,10.46
2018-10-16T09:44:16.898Z,10.77
2018-10-16T09:46:44.641Z,10.99
2018-10-16T09:49:12.454Z,11.00
2018-10-16T09:51:40.219Z,11.02
2018-10-16T09:54:07.958Z,11.14
2018-10-16T09:56:35.689Z,11.18
2018-10-16T09:59:03.470Z,11.19
2018-10-16T10:01:36.761Z,11.35
2018-10-16T10:04:04.972Z,11.37
2018-10-16T10:06:32.775Z,11.34
2018-10-16T10:09:00.528Z,11.41
2018-10-16T10:11:28.287Z,11.51
2018-10-16T10:13:56.032Z,11.47
2018-10-16T10:16:23.829Z,11.44
2018-10-16T10:18:51.624Z,11.49
2018-10-16T10:21:19.356Z,11.39
2018-10-16T10:23:47.111Z,11.59
2018-10-16T10:26:14.910Z,11.76
2018-10-16T10:28:42.694Z,11.97
2018-10-16T10:31:10.417Z,11.97
2018-10-16T10:33:38.193Z,11.85
2018-10-16T10:36:05.951Z,11.85
2018-10-16T10:38:33.696Z,12.02
2018-10-16T10:41:01.425Z,11.96
2018-10-16T10:43:29.354Z,11.87
2018-10-16T10:45:57.159Z,12.05
2018-10-16T10:48:24.917Z,11.95
2018-10-16T10:50:52.884Z,11.97
2018-10-16T10:53:20.519Z,12.01
2018-10-16T10:55:48.247Z,12.02
2018-10-16T10:58:15.964Z,11.93
2018-10-16T11:00:43.759Z,11.91
2018-10-16T11:03:11.539Z,11.77
2018-10-16T11:05:39.320Z,11.61
2018-10-16T11:08:07.124Z,11.48
2018-10-16T11:10:34.860Z,11.50
2018-10-16T11:13:02.619Z,11.35
2018-10-16T11:15:30.335Z,11.28
2018-10-16T11:17:58.095Z,11.23
2018-10-16T11:20:25.888Z,11.24
2018-10-16T11:22:53.627Z,11.18
2018-10-16T11:25:22.312Z,11.13
2018-10-16T11:27:50.065Z,11.03
2018-10-16T11:30:17.951Z,11.03
2018-10-16T11:32:45.688Z,10.80
2018-10-16T11:35:14.229Z,10.75
2018-10-16T11:37:42.083Z,10.58
2018-10-16T11:40:10.437Z,10.50
2018-10-16T11:42:38.337Z,10.43
2018-10-16T11:45:06.831Z,10.43
2018-10-16T11:47:34.640Z,10.37
2018-10-16T11:50:02.520Z,10.28
2018-10-16T11:52:30.323Z,10.23
2018-10-16T11:54:58.062Z,10.22
2018-10-16T11:57:25.782Z,10.22
2018-10-16T11:59:53.621Z,10.16
2018-10-16T12:02:21.381Z,10.08
2018-10-16T12:04:49.164Z,10.07
2018-10-16T12:07:17.003Z,10.12
2018-10-16T12:09:44.710Z,10.11
2018-10-16T12:12:12.552Z,10.21
2018-10-16T12:14:40.295Z,10.17
2018-10-16T12:17:12.988Z,10.02
2018-10-16T12:19:44.384Z,9.89
2018-10-16T12:22:12.170Z,9.81
2018-10-16T12:24:39.953Z,9.83
2018-10-16T12:27:07.748Z,9.84
2018-10-16T12:29:35.491Z,9.86
2018-10-16T12:32:03.305Z,9.88
2018-10-16T12:34:31.073Z,9.82
2018-10-16T12:36:58.908Z,9.74
2018-10-16T12:39:26.636Z,9.64
2018-10-16T12:41:54.370Z,9.59
2018-10-16T12:44:22.166Z,9.57
2018-10-16T12:46:49.992Z,9.60
2018-10-16T12:49:17.745Z,9.67
2018-10-16T12:51:45.508Z,9.60
2018-10-16T12:54:13.366Z,9.54
2018-10-16T12:56:41.115Z,9.46
2018-10-16T12:59:08.889Z,9.39
2018-10-16T13:01:36.649Z,9.37
2018-10-16T13:04:04.782Z,9.40
2018-10-16T13:06:32.523Z,9.32
2018-10-16T13:09:00.337Z,9.33
2018-10-16T13:11:28.094Z,9.31
2018-10-16T13:13:55.937Z,9.31
2018-10-16T13:16:23.717Z,9.37
2018-10-16T13:18:51.458Z,9.36
2018-10-16T13:21:19.257Z,9.34
2018-10-16T13:23:47.007Z,9.30
2018-10-16T13:26:14.833Z,9.22
2018-10-16T13:28:42.729Z,9.21
2018-10-16T13:31:10.468Z,9.14
2018-10-16T13:33:38.211Z,9.14
2018-10-16T13:36:05.964Z,9.09
2018-10-16T13:38:33.740Z,9.04
2018-10-16T13:41:01.455Z,9.01
2018-10-16T13:43:29.223Z,8.96
2018-10-16T13:45:57.004Z,8.95
2018-10-16T13:48:24.844Z,8.94
2018-10-16T13:50:52.645Z,8.86
2018-10-16T13:53:20.356Z,8.78
2018-10-16T13:58:21.776Z,8.81
2018-10-16T14:00:49.496Z,8.83
2018-10-16T14:03:17.293Z,8.76
2018-10-16T14:05:45.066Z,8.70
2018-10-16T14:08:12.864Z,8.64
2018-10-16T14:10:40.612Z,8.60
2018-10-16T14:13:08.375Z,8.54
2018-10-16T14:15:36.136Z,8.48
2018-10-16T14:18:04.036Z,8.41
2018-10-16T14:20:31.806Z,8.34
2018-10-16T14:22:59.564Z,8.21
2018-10-16T14:25:27.336Z,8.09
2018-10-16T14:27:55.153Z,8.01
2018-10-16T14:30:22.900Z,7.95
2018-10-16T14:32:50.755Z,7.85
2018-10-16T14:35:18.473Z,7.74
2018-10-16T14:37:46.242Z,7.67
2018-10-16T14:40:15.200Z,7.65
2018-10-16T14:42:43.333Z,7.59
2018-10-16T14:45:11.987Z,7.53
2018-10-16T14:47:39.705Z,7.45
2018-10-16T14:50:08.418Z,7.36
2018-10-16T14:52:36.126Z,7.27
2018-10-16T14:55:04.589Z,7.15
2018-10-16T14:57:32.437Z,7.02
2018-10-16T15:00:00.320Z,6.92
2018-10-16T15:02:28.083Z,6.79
2018-10-16T15:04:55.840Z,6.65
2018-10-16T15:07:23.602Z,6.57
2018-10-16T15:09:51.439Z,6.51
2018-10-16T15:12:23.673Z,6.48
2018-10-16T15:14:51.558Z,6.44
2018-10-16T15:17:19.340Z,6.37
2018-10-16T15:19:47.114Z,6.28
2018-10-16T15:22:14.931Z,6.19
2018-10-16T15:24:42.697Z,6.06
2018-10-16T15:27:10.458Z,5.95
2018-10-16T15:29:38.213Z,5.86
2018-10-16T15:32:06.056Z,5.76
2018-10-16T15:34:33.816Z,5.61
2018-10-16T15:37:01.590Z,5.49
2018-10-16T15:39:29.351Z,5.36
2018-10-16T15:41:57.223Z,5.22
2018-10-16T15:44:25.328Z,5.14
2018-10-16T15:46:53.245Z,5.10
2018-10-16T15:49:21.064Z,5.05
2018-10-16T15:51:48.819Z,4.98
2018-10-16T15:54:16.544Z,4.89
2018-10-16T15:56:44.350Z,4.75
2018-10-16T15:59:12.104Z,4.62
2018-10-16T16:01:39.983Z,4.54
2018-10-16T16:04:08.093Z,4.43
2018-10-16T16:06:35.894Z,4.34
2018-10-16T16:09:04.774Z,4.24
2018-10-16T16:11:32.581Z,4.13
2018-10-16T16:14:00.371Z,4.03
2018-10-16T16:16:28.160Z,3.94
2018-10-16T16:18:55.997Z,3.87
2018-10-16T16:21:23.718Z,3.77
2018-10-16T16:23:51.486Z,3.68
2018-10-16T16:26:19.369Z,3.53
2018-10-16T16:28:47.214Z,3.37
2018-10-16T16:31:14.989Z,3.30
2018-10-16T16:33:43.251Z,3.24
2018-10-16T16:36:11.071Z,3.17
2018-10-16T16:38:38.788Z,3.06
2018-10-16T16:41:06.626Z,2.91
2018-10-16T16:43:34.437Z,2.80
2018-10-16T16:46:02.380Z,2.74
2018-10-16T16:48:30.120Z,2.68
2018-10-16T16:50:57.940Z,2.64
2018-10-16T16:53:25.705Z,2.54
2018-10-16T16:55:53.490Z,2.49
2018-10-16T16:58:21.275Z,2.48
2018-10-16T17:00:49.860Z,2.45
2018-10-16T17:03:17.631Z,2.41
2018-10-16T17:05:45.435Z,2.36
2018-10-16T17:08:13.349Z,2.19
2018-10-16T17:10:41.197Z,2.09
2018-10-16T17:13:08.975Z,2.02
2018-10-16T17:15:36.750Z,1.92
2018-10-16T17:18:04.673Z,1.87
2018-10-16T17:20:32.428Z,1.76
2018-10-16T17:23:00.235Z,1.65
2018-10-16T17:25:28.293Z,1.60
2018-10-16T17:27:55.832Z,1.53
2018-10-16T17:30:23.542Z,1.43
2018-10-16T17:32:51.349Z,1.35
2018-10-16T17:35:19.119Z,1.33
2018-10-16T17:37:46.914Z,1.32
2018-10-16T17:40:15.986Z,1.30
2018-10-16T17:42:43.983Z,1.27
2018-10-16T17:45:13.158Z,1.22
2018-10-16T17:47:41.080Z,1.18
2018-10-16T17:50:11.158Z,1.12
2018-10-16T17:52:39.305Z,1.05
2018-10-16T17:55:07.830Z,0.98
2018-10-16T17:57:36.274Z,0.91
2018-10-16T18:00:04.357Z,0.87
2018-10-16T18:02:32.206Z,0.84
2018-10-16T18:05:00.015Z,0.82
2018-10-16T18:07:27.780Z,0.79
2018-10-16T18:09:55.599Z,0.75
2018-10-16T18:12:23.399Z,0.72
2018-10-16T18:14:51.604Z,0.59
2018-10-16T18:17:19.374Z,0.44
2018-10-16T18:19:47.173Z,0.40
2018-10-16T18:22:15.759Z,0.34
2018-10-16T18:24:43.576Z,0.31
2018-10-16T18:27:11.568Z,0.33
2018-10-16T18:29:39.405Z,0.25
2018-10-16T18:32:08.109Z,0.20
2018-10-16T18:34:35.966Z,0.12
2018-10-16T18:37:04.025Z,0.14
2018-10-16T18:39:31.909Z,0.17
2018-10-16T18:41:59.740Z,0.11
2018-10-16T18:44:27.661Z,0.08
2018-10-16T18:46:55.532Z,0.07
2018-10-16T18:49:23.329Z,0.05
2018-10-16T18:51:51.418Z,0.05
2018-10-16T18:54:19.248Z,-0.02
2018-10-16T18:56:47.023Z,-0.04
2018-10-16T18:59:15.680Z,-0.11
2018-10-16T19:01:43.547Z,-0.21
2018-10-16T19:04:11.352Z,-0.23
2018-10-16T19:06:39.277Z,-0.31
2018-10-16T19:09:10.028Z,-0.34
2018-10-16T19:11:37.849Z,-0.34
2018-10-16T19:14:05.961Z,-0.33
2018-10-16T19:16:33.676Z,-0.35
2018-10-16T19:19:01.491Z,-0.39
2018-10-16T19:21:29.253Z,-0.42
2018-10-16T19:23:57.005Z,-0.44
2018-10-16T19:26:24.813Z,-0.49
2018-10-16T19:28:52.610Z,-0.58
2018-10-16T19:31:20.424Z,-0.65
2018-10-16T19:33:48.301Z,-0.68
2018-10-16T19:36:16.083Z,-0.59
2018-10-16T19:38:43.904Z,-0.55
2018-10-16T19:41:11.772Z,-0.56
2018-10-16T19:43:39.550Z,-0.57
2018-10-16T19:46:07.296Z,-0.57
2018-10-16T19:48:35.066Z,-0.62
2018-10-16T19:51:02.857Z,-0.65
2018-10-16T19:53:30.734Z,-0.65
2018-10-16T19:55:58.538Z,-0.76
2018-10-16T19:58:26.302Z,-0.79
2018-10-16T20:00:54.098Z,-0.76
2018-10-16T20:03:21.868Z,-0.69
2018-10-16T20:05:49.616Z,-0.71
2018-10-16T20:08:17.568Z,-0.67
2018-10-16T20:10:45.371Z,-0.65
2018-10-16T20:13:13.114Z,-0.77
2018-10-16T20:15:40.975Z,-0.83
2018-10-16T20:18:08.737Z,-0.75
2018-10-16T20:20:36.448Z,-0.63
2018-10-16T20:23:04.297Z,-0.61
2018-10-16T20:25:32.076Z,-0.58
2018-10-16T20:27:59.865Z,-0.68
2018-10-16T20:30:27.660Z,-0.74
2018-10-16T20:32:55.388Z,-0.72
2018-10-16T20:35:23.113Z,-0.77
2018-10-16T20:37:50.908Z,-0.81
2018-10-16T20:40:18.688Z,-0.74
2018-10-16T20:42:46.469Z,-0.65
2018-10-16T20:45:14.272Z,-0.61
2018-10-16T20:47:42.102Z,-0.63
2018-10-16T20:50:09.857Z,-0.70
2018-10-16T20:52:38.235Z,-0.63
2018-10-16T20:55:06.453Z,-0.63
2018-10-16T20:57:34.215Z,-0.66
2018-10-16T21:00:02.676Z,-0.67
2018-10-16T21:02:30.592Z,-0.64
2018-10-16T21:04:58.612Z,-0.60
2018-10-16T21:07:26.494Z,-0.57
2018-10-16T21:09:54.420Z,-0.53
2018-10-16T21:12:22.405Z,-0.59
2018-10-16T21:14:50.287Z,-0.62
2018-10-16T21:17:18.182Z,-0.67
2018-10-16T21:19:46.058Z,-0.61
2018-10-16T21:22:13.841Z,-0.62
2018-10-16T21:24:41.589Z,-0.64
2018-10-16T21:27:11.258Z,-0.69
2018-10-16T21:29:39.063Z,-0.68
2018-10-16T21:32:07.609Z,-0.53
2018-10-16T21:34:35.358Z,-0.44
2018-10-16T21:37:03.165Z,-0.45
2018-10-16T21:39:30.934Z,-0.54
2018-10-16T21:41:58.696Z,-0.61
2018-10-16T21:44:26.757Z,-0.63
2018-10-16T21:46:54.577Z,-0.56
2018-10-16T21:49:23.067Z,-0.51
2018-10-16T21:51:51.204Z,-0.48
2018-10-16T21:54:18.980Z,-0.53
2018-10-16T21:56:46.781Z,-0.65
2018-10-16T21:59:14.713Z,-0.72
2018-10-16T22:01:48.078Z,-0.68
2018-10-16T22:04:15.949Z,-0.64
2018-10-16T22:06:43.720Z,-0.72
2018-10-16T22:09:13.237Z,-0.76
2018-10-16T22:11:40.985Z,-0.77
2018-10-16T22:14:09.594Z,-0.78
2018-10-16T22:16:37.371Z,-0.79
2018-10-16T22:19:05.540Z,-0.76
2018-10-16T22:21:33.295Z,-0.80
2018-10-16T22:24:01.396Z,-0.88
2018-10-16T22:26:29.109Z,-0.94
2018-10-16T22:28:57.020Z,-0.98
2018-10-16T22:31:24.752Z,-1.00
2018-10-16T22:33:52.471Z,-1.01
2018-10-16T22:36:20.215Z,-1.02
2018-10-16T22:38:47.937Z,-1.03
2018-10-16T22:41:15.837Z,-1.07
2018-10-16T22:43:43.567Z,-1.11
2018-10-16T22:46:11.403Z,-1.14
2018-10-16T22:48:39.487Z,-1.18
2018-10-16T22:51:07.300Z,-1.27
2018-10-16T22:53:35.114Z,-1.36
2018-10-16T22:56:02.888Z,-1.41
2018-10-16T22:58:30.705Z,-1.46
2018-10-16T23:00:58.471Z,-1.39
2018-10-16T23:03:26.306Z,-1.33
2018-10-16T23:05:54.089Z,-1.35
2018-10-16T23:08:21.860Z,-1.33
2018-10-16T23:10:49.641Z,-1.38
2018-10-16T23:13:17.448Z,-1.47
2018-10-16T23:15:45.193Z,-1.54
2018-10-16T23:18:12.952Z,-1.57
2018-10-16T23:20:40.763Z,-1.59
2018-10-16T23:23:08.577Z,-1.58
2018-10-16T23:25:36.361Z,-1.58
2018-10-16T23:28:04.212Z,-1.55
2018-10-16T23:30:31.976Z,-1.50
2018-10-16T23:32:59.746Z,-1.53
2018-10-16T23:35:27.485Z,-1.53
2018-10-16T23:37:55.271Z,-1.48
2018-10-16T23:40:23.072Z,-1.48
2018-10-16T23:42:50.854Z,-1.49
2018-10-16T23:45:18.648Z,-1.47
2018-10-16T23:47:46.509Z,-1.48
2018-10-16T23:50:14.299Z,-1.51
2018-10-16T23:52:42.081Z,-1.53
2018-10-16T23:55:10.352Z,-1.53
2018-10-16T23:57:38.234Z,-1.49
